createdAt,value
2023-02-09T00:03:37.325Z,12.25
2023-02-09T00:08:38.963Z,12.32
2023-02-09T00:13:40.621Z,12.73
2023-02-09T00:18:42.202Z,11.43
2023-02-09T00:23:43.849Z,11.70
2023-02-09T00:28:45.465Z,11.75
2023-02-09T00:33:47.390Z,12.02
2023-02-09T00:38:49.209Z,12.18
2023-02-09T00:43:50.844Z,12.45
2023-02-09T00:48:52.463Z,10.70
2023-02-09T00:53:54.096Z,11.57
2023-02-09T00:58:55.820Z,11.93
2023-02-09T01:03:57.537Z,12.15
2023-02-09T01:09:00.791Z,11.73
2023-02-09T01:14:04.414Z,11.95
2023-02-09T01:19:06.079Z,11.70
2023-02-09T01:24:11.854Z,12.48
2023-02-09T01:29:16.552Z,11.45
2023-02-09T01:34:18.974Z,11.27
2023-02-09T01:39:23.354Z,11.05
2023-02-09T01:44:24.953Z,11.65
2023-02-09T01:49:28.157Z,11.63
2023-02-09T01:54:46.250Z,11.80
2023-02-09T01:59:53.328Z,11.27
2023-02-09T02:04:55.337Z,11.15
2023-02-09T02:09:57.293Z,10.90
2023-02-09T02:14:58.953Z,11.50
2023-02-09T02:20:33.650Z,11.57
2023-02-09T02:25:41.265Z,11.23
2023-02-09T02:31:05.063Z,11.25
2023-02-09T02:36:31.505Z,11.05
2023-02-09T02:42:01.805Z,10.85
2023-02-09T02:47:07.144Z,11.13
2023-02-09T02:52:10.934Z,12.02
2023-02-09T02:57:17.097Z,11.75
2023-02-09T03:02:26.305Z,10.68
2023-02-09T03:07:27.984Z,11.98
2023-02-09T03:12:52.340Z,10.63
2023-02-09T03:18:20.524Z,11.50
2023-02-09T03:23:31.842Z,11.02
2023-02-09T03:28:35.890Z,11.15
2023-02-09T03:33:39.497Z,11.57
2023-02-09T03:38:41.182Z,11.10
2023-02-09T03:44:01.345Z,11.90
2023-02-09T03:49:02.921Z,11.15
2023-02-09T03:54:04.567Z,10.75
2023-02-09T03:59:06.515Z,9.95
2023-02-09T04:04:08.719Z,10.75
2023-02-09T04:09:11.388Z,11.27
2023-02-09T04:14:13.828Z,10.88
2023-02-09T04:19:15.814Z,11.13
2023-02-09T04:24:17.472Z,11.25
2023-02-09T04:29:19.112Z,11.25
2023-02-09T04:34:22.883Z,11.98
2023-02-09T04:39:24.481Z,11.15
2023-02-09T04:44:26.113Z,11.30
2023-02-09T04:49:27.710Z,11.73
2023-02-09T04:54:29.374Z,11.23
2023-02-09T04:59:39.095Z,11.93
2023-02-09T05:04:40.745Z,11.93
2023-02-09T05:09:42.437Z,11.32
2023-02-09T05:14:44.029Z,11.68
2023-02-09T05:19:45.624Z,11.88
2023-02-09T05:24:47.310Z,11.57
2023-02-09T05:29:48.966Z,12.18
2023-02-09T05:34:50.698Z,11.82
2023-02-09T05:39:52.906Z,12.00
2023-02-09T05:44:54.567Z,12.05
2023-02-09T05:49:56.287Z,11.82
2023-02-09T05:54:57.905Z,11.70
2023-02-09T05:59:59.518Z,12.95
2023-02-09T06:05:01.131Z,13.02
2023-02-09T06:10:02.716Z,11.25
2023-02-09T06:15:05.078Z,11.63
2023-02-09T06:20:07.109Z,11.68
2023-02-09T06:25:08.735Z,11.25
2023-02-09T06:30:11.198Z,11.07
2023-02-09T06:35:12.826Z,10.77
2023-02-09T06:40:14.490Z,10.98
2023-02-09T06:45:17.532Z,11.02
2023-02-09T06:50:19.479Z,11.68
2023-02-09T06:55:21.298Z,11.75
2023-02-09T07:00:23.137Z,11.05
2023-02-09T07:05:25.561Z,10.90
2023-02-09T07:10:27.216Z,11.40
2023-02-09T07:15:28.858Z,11.50
2023-02-09T07:20:30.429Z,12.05
2023-02-09T07:25:32.221Z,12.05
2023-02-09T07:30:33.989Z,12.60
2023-02-09T07:35:39.714Z,11.68
2023-02-09T07:40:46.452Z,11.63
2023-02-09T07:45:48.342Z,12.90
2023-02-09T07:50:51.113Z,11.88
2023-02-09T07:55:53.170Z,10.75
2023-02-09T08:00:54.785Z,11.02
2023-02-09T08:06:02.363Z,12.35
2023-02-09T08:11:05.490Z,14.18
2023-02-09T08:16:15.023Z,13.13
2023-02-09T08:21:18.350Z,12.53
2023-02-09T08:26:20.221Z,11.43
2023-02-09T08:31:22.568Z,12.20
2023-02-09T08:36:24.248Z,10.07
2023-02-09T08:41:25.840Z,11.70
2023-02-09T08:46:27.749Z,10.32
2023-02-09T08:51:29.470Z,11.10
2023-02-09T08:56:31.085Z,11.30
2023-02-09T09:01:32.786Z,11.63
2023-02-09T09:06:34.493Z,11.93
2023-02-09T09:11:36.792Z,12.63
2023-02-09T09:16:38.590Z,12.20
2023-02-09T09:21:40.265Z,12.45
2023-02-09T09:26:42.001Z,12.82
2023-02-09T09:31:43.900Z,13.27
2023-02-09T09:36:45.603Z,12.25
2023-02-09T09:41:49.322Z,12.43
2023-02-09T09:46:53.322Z,13.63
2023-02-09T09:52:11.482Z,14.65
2023-02-09T09:57:27.409Z,15.57
2023-02-09T10:02:32.296Z,13.23
2023-02-09T10:07:34.624Z,13.13
2023-02-09T10:12:39.507Z,15.10
2023-02-09T10:17:41.106Z,13.75
2023-02-09T10:22:45.870Z,14.63
2023-02-09T10:27:47.516Z,14.82
2023-02-09T10:32:49.213Z,17.02
2023-02-09T10:37:59.081Z,15.07
2023-02-09T10:43:04.145Z,15.80
2023-02-09T10:48:11.972Z,15.95
2023-02-09T10:53:26.793Z,16.50
2023-02-09T10:58:32.740Z,16.00
2023-02-09T11:03:35.408Z,17.67
2023-02-09T11:08:52.294Z,16.48
2023-02-09T11:13:54.369Z,17.27
2023-02-09T11:19:06.460Z,18.00
2023-02-09T11:24:35.620Z,16.42
2023-02-09T11:29:43.469Z,16.02
2023-02-09T11:35:00.697Z,17.15
2023-02-09T11:40:39.843Z,17.45
2023-02-09T11:45:50.342Z,17.10
2023-02-09T11:51:00.910Z,17.02
2023-02-09T11:56:07.968Z,17.33
2023-02-09T12:01:20.610Z,16.40
2023-02-09T12:06:24.587Z,16.50
2023-02-09T12:11:41.987Z,16.83
2023-02-09T12:16:50.388Z,17.88
2023-02-09T12:21:52.098Z,17.00
2023-02-09T12:26:57.535Z,17.60
2023-02-09T12:32:06.214Z,17.15
2023-02-09T12:37:14.473Z,19.60
2023-02-09T12:42:16.066Z,18.20
2023-02-09T12:47:41.383Z,17.00
2023-02-09T12:53:21.547Z,18.15
2023-02-09T12:58:44.988Z,17.95
2023-02-09T13:04:05.249Z,18.10
2023-02-09T13:09:13.523Z,19.40
2023-02-09T13:14:16.640Z,17.85
2023-02-09T13:20:02.331Z,17.60
2023-02-09T13:25:32.345Z,18.33
2023-02-09T13:30:34.117Z,18.27
2023-02-09T13:35:46.705Z,17.38
2023-02-09T13:40:50.405Z,19.92
2023-02-09T13:45:54.667Z,26.63
2023-02-09T13:50:59.271Z,20.50
2023-02-09T14:02:39.003Z,20.10
2023-02-09T14:07:40.714Z,19.95
2023-02-09T14:12:51.235Z,20.23
2023-02-09T14:17:55.294Z,19.55
2023-02-09T14:23:00.602Z,18.63
2023-02-09T14:28:02.453Z,17.65
2023-02-09T14:33:04.298Z,16.65
2023-02-09T14:38:06.058Z,16.77
2023-02-09T14:43:10.624Z,17.77
2023-02-09T14:48:23.503Z,16.95
2023-02-09T14:53:29.707Z,17.25
2023-02-09T14:58:33.745Z,18.60
2023-02-09T15:03:35.398Z,17.58
2023-02-09T15:08:38.941Z,17.10
2023-02-09T15:13:40.795Z,17.58
2023-02-09T15:18:42.591Z,19.13
2023-02-09T15:23:44.213Z,19.60
2023-02-09T15:28:46.072Z,17.63
2023-02-09T15:33:47.832Z,19.15
2023-02-09T15:38:49.543Z,17.63
2023-02-09T15:44:09.620Z,17.55
2023-02-09T15:49:11.241Z,17.33
2023-02-09T15:54:18.761Z,17.27
2023-02-09T15:59:24.545Z,17.13
2023-02-09T16:04:26.300Z,17.13
2023-02-09T16:09:29.017Z,17.27
2023-02-09T16:14:31.661Z,20.38
2023-02-09T16:19:33.671Z,14.75
2023-02-09T16:24:46.514Z,11.95
2023-02-09T16:29:48.221Z,12.13
2023-02-09T16:34:50.502Z,13.30
2023-02-09T16:39:52.865Z,11.88
2023-02-09T16:44:54.516Z,10.60
2023-02-09T16:50:02.842Z,10.32
2023-02-09T16:55:07.028Z,9.18
2023-02-09T17:00:09.455Z,9.20
2023-02-09T17:05:29.346Z,8.13
2023-02-09T17:10:34.143Z,7.88
2023-02-09T17:15:47.231Z,6.93
2023-02-09T17:20:55.964Z,6.63
2023-02-09T17:25:58.301Z,6.10
2023-02-09T17:31:02.175Z,6.22
2023-02-09T17:36:25.227Z,5.90
2023-02-09T17:41:33.994Z,8.18
2023-02-09T17:46:35.740Z,12.18
2023-02-09T17:51:40.459Z,11.15
2023-02-09T17:56:43.424Z,10.27
2023-02-09T18:01:49.587Z,10.90
2023-02-09T18:06:51.318Z,9.60
2023-02-09T18:12:03.999Z,11.60
2023-02-09T18:17:05.739Z,15.07
2023-02-09T18:22:07.441Z,25.48
2023-02-09T18:27:14.790Z,23.10
2023-02-09T18:32:17.119Z,19.92
2023-02-09T18:37:18.817Z,22.00
2023-02-09T18:42:20.441Z,20.67
2023-02-09T18:47:22.200Z,17.63
2023-02-09T18:52:25.320Z,17.55
2023-02-09T18:57:27.093Z,16.40
2023-02-09T19:02:28.791Z,14.52
2023-02-09T19:07:32.458Z,13.27
2023-02-09T19:12:34.206Z,15.20
2023-02-09T19:17:35.979Z,14.63
2023-02-09T19:22:38.366Z,13.88
2023-02-09T19:27:40.321Z,16.20
2023-02-09T19:32:42.073Z,20.95
2023-02-09T19:37:43.923Z,24.60
2023-02-09T19:42:45.566Z,27.98
2023-02-09T19:47:47.202Z,25.52
2023-02-09T19:52:50.336Z,25.35
2023-02-09T19:57:52.088Z,18.40
2023-02-09T20:02:53.856Z,17.58
2023-02-09T20:07:55.761Z,19.13
2023-02-09T20:12:57.487Z,16.50
2023-02-09T20:17:59.205Z,14.63
2023-02-09T20:23:00.915Z,14.20
2023-02-09T20:28:02.956Z,14.68
2023-02-09T20:33:04.618Z,14.05
2023-02-09T20:38:06.427Z,12.20
2023-02-09T20:43:27.836Z,12.82
2023-02-09T20:48:29.487Z,10.40
2023-02-09T20:53:43.877Z,10.57
2023-02-09T20:58:45.899Z,10.77
2023-02-09T21:03:54.475Z,12.60
2023-02-09T21:09:06.237Z,12.05
2023-02-09T21:14:13.479Z,12.63
2023-02-09T21:19:24.511Z,12.98
2023-02-09T21:24:26.420Z,12.10
2023-02-09T21:29:29.302Z,9.13
2023-02-09T21:34:31.039Z,9.63
2023-02-09T21:39:32.704Z,7.78
2023-02-09T21:44:37.807Z,9.35
2023-02-09T21:49:39.431Z,6.55
2023-02-09T21:54:41.086Z,6.35
2023-02-09T21:59:42.961Z,5.55
2023-02-09T22:04:46.594Z,6.85
2023-02-09T22:09:48.243Z,6.03
2023-02-09T22:14:49.833Z,5.03
2023-02-09T22:19:51.466Z,4.80
2023-02-09T22:24:53.123Z,4.50
2023-02-09T22:29:54.688Z,3.65
2023-02-09T22:34:56.272Z,4.85
2023-02-09T22:39:57.979Z,4.82
2023-02-09T22:44:59.630Z,5.82
2023-02-09T22:50:01.490Z,15.95
2023-02-09T22:55:03.187Z,4.82
2023-02-09T23:00:07.668Z,5.75
2023-02-09T23:05:28.060Z,4.43
2023-02-09T23:10:30.721Z,3.97
2023-02-09T23:15:32.354Z,3.83
2023-02-09T23:20:33.983Z,4.35
2023-02-09T23:25:35.611Z,4.63
2023-02-09T23:30:37.690Z,4.75
2023-02-09T23:35:39.969Z,3.72
2023-02-09T23:40:41.642Z,3.50
2023-02-09T23:45:43.245Z,3.60
2023-02-09T23:50:44.948Z,3.45
2023-02-09T23:55:51.501Z,3.20
